createdAt,value
2023-12-11T00:01:34.675Z,29.50
2023-12-11T00:06:36.581Z,35.42
2023-12-11T00:11:38.339Z,39.00
2023-12-11T00:16:40.371Z,29.17
2023-12-11T00:21:42.487Z,30.63
2023-12-11T00:26:44.329Z,34.60
2023-12-11T00:31:46.048Z,32.08
2023-12-11T00:36:48.704Z,25.40
2023-12-11T00:41:51.216Z,28.25
2023-12-11T00:46:52.965Z,29.17
2023-12-11T00:51:54.813Z,34.65
2023-12-11T00:56:56.657Z,30.45
2023-12-11T01:01:58.376Z,35.78
2023-12-11T01:07:00.130Z,32.78
2023-12-11T01:12:01.967Z,28.50
2023-12-11T01:17:36.195Z,35.00
2023-12-11T01:22:25.366Z,33.20
2023-12-11T01:27:27.036Z,31.52
2023-12-11T01:32:28.761Z,41.75
2023-12-11T01:37:30.691Z,28.40
2023-12-11T01:42:34.260Z,35.38
2023-12-11T01:47:36.114Z,39.58
2023-12-11T01:52:38.579Z,36.05
2023-12-11T01:57:40.260Z,42.15
2023-12-11T02:02:42.572Z,28.75
2023-12-11T02:07:44.474Z,33.42
2023-12-11T02:12:46.349Z,34.40
2023-12-11T02:17:48.088Z,27.05
2023-12-11T02:22:50.686Z,32.92
2023-12-11T02:27:52.768Z,29.02
2023-12-11T02:32:54.559Z,33.53
2023-12-11T02:37:56.285Z,20.30
2023-12-11T02:42:58.169Z,32.33
2023-12-11T02:48:04.238Z,36.15
2023-12-11T02:53:06.353Z,28.50
2023-12-11T02:58:08.243Z,33.85
2023-12-11T03:03:10.470Z,29.58
2023-12-11T03:08:12.230Z,30.67
2023-12-11T03:13:14.012Z,26.30
2023-12-11T03:18:15.948Z,29.63
2023-12-11T03:23:17.711Z,32.28
2023-12-11T03:28:19.425Z,29.45
2023-12-11T03:33:21.310Z,24.80
2023-12-11T03:38:23.068Z,31.35
2023-12-11T03:43:24.816Z,34.92
2023-12-11T03:48:26.992Z,38.75
2023-12-11T03:53:28.836Z,29.38
2023-12-11T03:58:30.580Z,25.17
2023-12-11T04:03:32.722Z,29.10
2023-12-11T04:08:34.497Z,31.70
2023-12-11T04:13:36.720Z,30.05
2023-12-11T04:18:38.581Z,33.80
2023-12-11T04:23:40.463Z,27.65
2023-12-11T04:28:42.218Z,34.47
2023-12-11T04:33:44.269Z,27.25
2023-12-11T04:38:46.189Z,22.30
2023-12-11T04:43:47.962Z,18.98
2023-12-11T04:48:49.789Z,17.48
2023-12-11T04:53:51.621Z,18.67
2023-12-11T04:58:53.389Z,22.48
2023-12-11T05:03:55.159Z,17.80
2023-12-11T05:08:56.945Z,19.10
2023-12-11T05:13:58.708Z,21.00
2023-12-11T05:19:00.528Z,22.92
2023-12-11T05:24:02.315Z,23.63
2023-12-11T05:29:05.291Z,20.98
2023-12-11T05:34:07.095Z,15.27
2023-12-11T05:39:08.854Z,21.75
2023-12-11T05:44:11.060Z,17.25
2023-12-11T05:49:13.158Z,19.77
2023-12-11T05:54:14.988Z,20.42
2023-12-11T05:59:16.760Z,22.73
2023-12-11T06:04:18.476Z,20.65
2023-12-11T06:09:20.214Z,24.63
2023-12-11T06:14:21.974Z,19.60
2023-12-11T06:19:23.782Z,18.50
2023-12-11T06:24:25.564Z,17.55
2023-12-11T06:29:27.511Z,24.08
2023-12-11T06:34:29.333Z,13.10
2023-12-11T06:39:31.490Z,14.48
2023-12-11T06:44:33.227Z,15.02
2023-12-11T06:49:35.226Z,13.65
2023-12-11T06:54:37.052Z,16.10
2023-12-11T06:59:38.900Z,17.10
2023-12-11T07:04:43.705Z,20.75
2023-12-11T07:09:47.801Z,10.25
2023-12-11T07:14:49.635Z,14.18
2023-12-11T07:19:51.457Z,12.20
2023-12-11T07:24:53.224Z,21.13
2023-12-11T07:29:55.003Z,18.52
2023-12-11T07:34:56.766Z,21.25
2023-12-11T07:39:58.613Z,14.60
2023-12-11T07:45:00.573Z,18.95
2023-12-11T07:50:03.114Z,22.77
2023-12-11T07:55:05.619Z,21.15
2023-12-11T08:00:08.998Z,18.83
2023-12-11T08:05:11.277Z,18.80
2023-12-11T08:10:13.280Z,23.33
2023-12-11T08:15:16.247Z,18.80
2023-12-11T08:20:19.085Z,17.92
2023-12-11T08:25:21.472Z,12.10
2023-12-11T08:30:23.297Z,21.25
2023-12-11T08:35:24.993Z,26.58
2023-12-11T08:40:27.677Z,18.08
2023-12-11T08:45:30.312Z,23.70
2023-12-11T08:50:46.622Z,22.08
2023-12-11T08:55:48.573Z,20.48
2023-12-11T09:00:50.506Z,21.70
2023-12-11T09:05:54.855Z,25.17
2023-12-11T09:10:58.135Z,19.58
2023-12-11T09:15:59.872Z,16.52
2023-12-11T09:21:01.614Z,17.48
2023-12-11T09:26:03.456Z,18.80
2023-12-11T09:31:05.810Z,14.65
2023-12-11T09:36:08.381Z,14.52
2023-12-11T09:41:10.184Z,9.38
2023-12-11T09:46:17.429Z,11.32
2023-12-11T09:51:19.710Z,11.82
2023-12-11T09:56:21.405Z,11.07
2023-12-11T10:01:23.547Z,15.48
2023-12-11T10:06:25.566Z,16.45
2023-12-11T10:11:29.624Z,7.00
2023-12-11T10:16:33.592Z,15.13
2023-12-11T10:21:42.708Z,6.47
2023-12-11T10:26:54.103Z,11.23
2023-12-11T10:32:03.917Z,11.77
2023-12-11T10:42:15.485Z,13.23
2023-12-11T10:47:17.650Z,8.45
2023-12-11T10:52:19.607Z,11.25
2023-12-11T10:57:32.635Z,13.65
2023-12-11T11:02:36.286Z,9.93
2023-12-11T11:07:44.852Z,11.02
2023-12-11T11:13:13.277Z,9.40
2023-12-11T11:18:15.137Z,11.45
2023-12-11T11:23:20.058Z,8.55
2023-12-11T11:28:40.568Z,10.80
2023-12-11T11:33:51.035Z,11.25
2023-12-11T11:39:02.069Z,8.85
2023-12-11T11:44:10.411Z,9.10
2023-12-11T11:49:34.123Z,12.25
2023-12-11T11:54:40.915Z,9.48
2023-12-11T11:59:44.375Z,7.97
2023-12-11T12:04:46.220Z,11.63
2023-12-11T12:09:53.173Z,7.18
2023-12-11T12:15:03.021Z,10.40
2023-12-11T12:20:15.981Z,18.95
2023-12-11T12:25:18.307Z,9.30
2023-12-11T12:30:20.706Z,9.55
2023-12-11T12:35:23.585Z,9.55
2023-12-11T12:40:25.436Z,7.97
2023-12-11T12:45:36.162Z,6.53
2023-12-11T12:50:39.094Z,8.27
2023-12-11T12:55:41.533Z,8.15
2023-12-11T13:00:43.819Z,7.15
2023-12-11T13:05:47.118Z,7.95
2023-12-11T13:10:58.463Z,8.05
2023-12-11T13:16:00.314Z,7.18
2023-12-11T13:21:02.165Z,8.80
2023-12-11T13:26:04.099Z,8.02
2023-12-11T13:31:06.140Z,6.47
2023-12-11T13:36:09.265Z,5.07
2023-12-11T13:41:11.786Z,7.78
2023-12-11T13:46:13.577Z,6.70
2023-12-11T13:51:15.403Z,7.70
2023-12-11T13:56:17.201Z,8.18
2023-12-11T14:01:19.116Z,7.60
2023-12-11T14:06:21.384Z,9.05
2023-12-11T14:11:23.194Z,7.00
2023-12-11T14:16:24.966Z,7.18
2023-12-11T14:21:26.713Z,7.72
2023-12-11T14:26:28.768Z,8.18
2023-12-11T14:31:31.174Z,7.75
2023-12-11T14:36:32.997Z,6.13
2023-12-11T14:41:34.947Z,9.15
2023-12-11T14:46:36.804Z,11.73
2023-12-11T14:51:40.624Z,10.98
2023-12-11T14:56:42.871Z,15.43
2023-12-11T15:01:46.412Z,9.57
2023-12-11T15:06:48.273Z,6.75
2023-12-11T15:11:51.134Z,4.75
2023-12-11T15:16:53.487Z,13.23
2023-12-11T15:21:55.309Z,8.05
2023-12-11T15:26:57.170Z,6.03
2023-12-11T15:31:59.084Z,7.35
2023-12-11T15:37:00.885Z,9.68
2023-12-11T15:42:02.733Z,9.35
2023-12-11T15:47:04.764Z,8.13
2023-12-11T15:52:07.700Z,8.52
2023-12-11T15:57:09.849Z,10.95
2023-12-11T16:02:11.650Z,7.50
2023-12-11T16:07:13.579Z,8.45
2023-12-11T16:12:15.309Z,6.55
2023-12-11T16:17:17.781Z,8.00
2023-12-11T16:22:20.430Z,6.72
2023-12-11T16:27:23.770Z,4.80
2023-12-11T16:32:25.501Z,6.68
2023-12-11T16:37:27.407Z,7.57
2023-12-11T16:42:29.542Z,3.85
2023-12-11T16:47:31.729Z,6.93
2023-12-11T16:52:33.757Z,10.52
2023-12-11T16:57:35.855Z,6.53
2023-12-11T17:02:38.320Z,8.90
2023-12-11T17:07:42.532Z,9.60
2023-12-11T17:12:46.436Z,11.82
2023-12-11T17:17:48.200Z,15.32
2023-12-11T17:22:50.051Z,6.63
2023-12-11T17:27:51.973Z,9.15
2023-12-11T17:32:53.779Z,7.47
2023-12-11T17:37:57.799Z,4.70
2023-12-11T17:42:59.558Z,10.70
2023-12-11T17:48:14.319Z,11.18
2023-12-11T17:53:26.441Z,7.68
2023-12-11T17:58:33.576Z,11.43
2023-12-11T18:03:36.246Z,11.65
2023-12-11T18:08:37.980Z,8.48
2023-12-11T18:13:42.955Z,8.63
2023-12-11T18:18:45.596Z,8.57
2023-12-11T18:23:49.664Z,10.77
2023-12-11T18:28:51.442Z,10.80
2023-12-11T18:34:00.758Z,10.00
2023-12-11T18:39:05.920Z,11.20
2023-12-11T18:44:07.841Z,10.73
2023-12-11T18:49:10.483Z,7.90
2023-12-11T18:54:13.345Z,8.05
2023-12-11T18:59:15.912Z,14.60
2023-12-11T19:04:17.748Z,14.48
2023-12-11T19:09:19.550Z,7.30
2023-12-11T19:14:21.377Z,16.15
2023-12-11T19:19:23.204Z,16.70
2023-12-11T19:24:26.637Z,15.88
2023-12-11T19:29:28.469Z,15.27
2023-12-11T19:34:31.595Z,13.43
2023-12-11T19:39:33.444Z,11.23
2023-12-11T19:44:35.386Z,12.88
2023-12-11T19:49:37.257Z,11.95
2023-12-11T19:54:42.089Z,11.73
2023-12-11T19:59:46.758Z,12.27
2023-12-11T20:04:49.282Z,11.73
2023-12-11T20:09:51.683Z,15.43
2023-12-11T20:14:53.405Z,13.48
2023-12-11T20:19:57.650Z,14.90
2023-12-11T20:24:59.520Z,9.05
2023-12-11T20:30:01.496Z,9.18
2023-12-11T20:35:04.378Z,15.15
2023-12-11T20:40:07.090Z,9.02
2023-12-11T20:45:09.127Z,8.15
2023-12-11T20:50:14.232Z,10.40
2023-12-11T20:55:16.144Z,12.55
2023-12-11T21:00:18.061Z,9.57
2023-12-11T21:05:19.894Z,11.50
2023-12-11T21:10:21.929Z,6.70
2023-12-11T21:15:25.929Z,7.47
2023-12-11T21:20:27.971Z,8.25
2023-12-11T21:25:29.840Z,12.93
2023-12-11T21:30:31.834Z,6.43
2023-12-11T21:35:33.578Z,10.30
2023-12-11T21:40:35.339Z,7.93
2023-12-11T21:45:38.426Z,7.93
2023-12-11T21:50:40.160Z,7.22
2023-12-11T21:55:41.891Z,10.77
2023-12-11T22:00:43.850Z,12.30
2023-12-11T22:05:46.425Z,12.85
2023-12-11T22:10:48.234Z,11.30
2023-12-11T22:15:50.005Z,22.88
2023-12-11T22:20:51.768Z,14.77
2023-12-11T22:25:57.629Z,8.82
2023-12-11T22:30:59.362Z,9.57
2023-12-11T22:36:01.240Z,19.40
2023-12-11T22:41:03.038Z,15.27
2023-12-11T22:46:05.586Z,5.03
2023-12-11T22:51:07.566Z,11.90
2023-12-11T22:56:12.200Z,9.77
2023-12-11T23:01:14.138Z,8.07
2023-12-11T23:06:16.082Z,8.57
2023-12-11T23:11:17.852Z,6.00
2023-12-11T23:16:19.691Z,10.30
2023-12-11T23:21:44.985Z,8.77
2023-12-11T23:26:59.042Z,11.20
2023-12-11T23:32:00.711Z,13.57
2023-12-11T23:37:02.481Z,9.98
2023-12-11T23:42:04.481Z,18.27
2023-12-11T23:47:06.673Z,33.80
2023-12-11T23:52:08.535Z,18.80
2023-12-11T23:57:10.359Z,16.58
